sensor_id;sensor_type;location;lat;lon;timestamp;temperature;humidity
14985;DHT22;7588;62.368;25.902;2023-01-01T00:01:36;2.80;99.90
14985;DHT22;7588;62.368;25.902;2023-01-01T00:04:06;2.80;99.90
14985;DHT22;7588;62.368;25.902;2023-01-01T00:06:34;2.80;99.90
14985;DHT22;7588;62.368;25.902;2023-01-01T00:09:00;2.80;99.90
14985;DHT22;7588;62.368;25.902;2023-01-01T00:11:44;2.90;99.90
14985;DHT22;7588;62.368;25.902;2023-01-01T00:14:11;2.90;99.90
14985;DHT22;7588;62.368;25.902;2023-01-01T00:16:36;2.80;99.90
14985;DHT22;7588;62.368;25.902;2023-01-01T00:19:02;2.80;99.90
14985;DHT22;7588;62.368;25.902;2023-01-01T00:21:28;2.70;99.90
14985;DHT22;7588;62.368;25.902;2023-01-01T00:23:54;2.70;99.90
14985;DHT22;7588;62.368;25.902;2023-01-01T00:26:20;2.70;99.90
14985;DHT22;7588;62.368;25.902;2023-01-01T00:28:46;2.70;99.90
14985;DHT22;7588;62.368;25.902;2023-01-01T00:31:14;2.60;99.90
14985;DHT22;7588;62.368;25.902;2023-01-01T00:33:45;2.50;99.90
14985;DHT22;7588;62.368;25.902;2023-01-01T00:36:15;2.50;99.90
14985;DHT22;7588;62.368;25.902;2023-01-01T00:38:42;2.50;99.90
14985;DHT22;7588;62.368;25.902;2023-01-01T00:41:08;2.50;99.90
14985;DHT22;7588;62.368;25.902;2023-01-01T00:43:34;2.40;99.90
14985;DHT22;7588;62.368;25.902;2023-01-01T00:46:00;2.40;99.90
14985;DHT22;7588;62.368;25.902;2023-01-01T00:48:26;2.40;99.90
14985;DHT22;7588;62.368;25.902;2023-01-01T00:50:52;2.40;99.90
14985;DHT22;7588;62.368;25.902;2023-01-01T00:53:19;2.40;99.90
14985;DHT22;7588;62.368;25.902;2023-01-01T00:55:47;2.40;99.90
14985;DHT22;7588;62.368;25.902;2023-01-01T00:58:14;2.40;99.90
14985;DHT22;7588;62.368;25.902;2023-01-01T01:00:40;2.40;99.90
14985;DHT22;7588;62.368;25.902;2023-01-01T01:03:06;2.40;99.90
14985;DHT22;7588;62.368;25.902;2023-01-01T01:05:32;2.30;99.90
14985;DHT22;7588;62.368;25.902;2023-01-01T01:07:59;2.30;99.90
14985;DHT22;7588;62.368;25.902;2023-01-01T01:10:25;2.40;99.90
14985;DHT22;7588;62.368;25.902;2023-01-01T01:12:51;2.40;99.90
14985;DHT22;7588;62.368;25.902;2023-01-01T01:15:18;2.40;99.90
14985;DHT22;7588;62.368;25.902;2023-01-01T01:17:44;2.40;99.90
14985;DHT22;7588;62.368;25.902;2023-01-01T01:20:10;2.30;99.90
14985;DHT22;7588;62.368;25.902;2023-01-01T01:22:37;2.30;99.90
14985;DHT22;7588;62.368;25.902;2023-01-01T01:25:03;2.30;99.90
14985;DHT22;7588;62.368;25.902;2023-01-01T01:27:29;2.20;99.90
14985;DHT22;7588;62.368;25.902;2023-01-01T01:29:55;2.20;99.90
14985;DHT22;7588;62.368;25.902;2023-01-01T01:32:21;2.20;99.90
14985;DHT22;7588;62.368;25.902;2023-01-01T01:34:47;2.20;99.90
14985;DHT22;7588;62.368;25.902;2023-01-01T01:37:13;2.20;99.90
14985;DHT22;7588;62.368;25.902;2023-01-01T01:39:38;2.20;99.90
14985;DHT22;7588;62.368;25.902;2023-01-01T01:42:04;2.20;99.90
14985;DHT22;7588;62.368;25.902;2023-01-01T01:44:50;2.20;99.90
14985;DHT22;7588;62.368;25.902;2023-01-01T01:50:06;2.20;99.90
14985;DHT22;7588;62.368;25.902;2023-01-01T01:52:36;2.10;99.90
14985;DHT22;7588;62.368;25.902;2023-01-01T01:55:04;2.10;99.90
14985;DHT22;7588;62.368;25.902;2023-01-01T01:57:32;2.10;99.90
14985;DHT22;7588;62.368;25.902;2023-01-01T01:59:59;2.10;99.90
14985;DHT22;7588;62.368;25.902;2023-01-01T02:02:57;2.00;99.90
14985;DHT22;7588;62.368;25.902;2023-01-01T02:05:21;2.00;99.90
14985;DHT22;7588;62.368;25.902;2023-01-01T02:07:48;2.00;99.90
14985;DHT22;7588;62.368;25.902;2023-01-01T02:10:16;1.90;99.90
14985;DHT22;7588;62.368;25.902;2023-01-01T02:12:42;1.90;99.90
14985;DHT22;7588;62.368;25.902;2023-01-01T02:15:09;2.00;99.90
14985;DHT22;7588;62.368;25.902;2023-01-01T02:18:00;1.90;99.90
14985;DHT22;7588;62.368;25.902;2023-01-01T02:20:40;1.90;99.90
14985;DHT22;7588;62.368;25.902;2023-01-01T02:23:14;1.90;99.90
14985;DHT22;7588;62.368;25.902;2023-01-01T02:25:51;1.90;99.90
14985;DHT22;7588;62.368;25.902;2023-01-01T02:29:21;1.80;99.90
14985;DHT22;7588;62.368;25.902;2023-01-01T02:31:45;1.70;99.90
14985;DHT22;7588;62.368;25.902;2023-01-01T02:34:13;1.80;99.90
14985;DHT22;7588;62.368;25.902;2023-01-01T02:36:44;1.80;99.90
14985;DHT22;7588;62.368;25.902;2023-01-01T02:39:13;1.80;99.90
14985;DHT22;7588;62.368;25.902;2023-01-01T02:41:43;1.80;99.90
14985;DHT22;7588;62.368;25.902;2023-01-01T02:44:10;1.80;99.90
14985;DHT22;7588;62.368;25.902;2023-01-01T02:46:36;1.60;99.90
14985;DHT22;7588;62.368;25.902;2023-01-01T02:49:03;1.60;99.90
14985;DHT22;7588;62.368;25.902;2023-01-01T02:57:33;1.50;99.90
14985;DHT22;7588;62.368;25.902;2023-01-01T03:00:11;1.50;99.90
14985;DHT22;7588;62.368;25.902;2023-01-01T03:11:16;1.40;99.90
14985;DHT22;7588;62.368;25.902;2023-01-01T03:13:58;1.40;99.90
14985;DHT22;7588;62.368;25.902;2023-01-01T03:24:32;1.30;99.90
14985;DHT22;7588;62.368;25.902;2023-01-01T03:27:02;1.30;99.90
14985;DHT22;7588;62.368;25.902;2023-01-01T03:29:32;1.30;99.90
14985;DHT22;7588;62.368;25.902;2023-01-01T03:32:01;1.20;99.90
14985;DHT22;7588;62.368;25.902;2023-01-01T03:34:33;1.20;99.90
14985;DHT22;7588;62.368;25.902;2023-01-01T03:37:04;1.20;99.90
14985;DHT22;7588;62.368;25.902;2023-01-01T03:39:37;1.20;99.90
14985;DHT22;7588;62.368;25.902;2023-01-01T03:42:38;1.20;99.90
14985;DHT22;7588;62.368;25.902;2023-01-01T03:45:29;1.10;99.90
14985;DHT22;7588;62.368;25.902;2023-01-01T03:47:58;1.10;99.90
14985;DHT22;7588;62.368;25.902;2023-01-01T03:50:33;1.20;99.90
14985;DHT22;7588;62.368;25.902;2023-01-01T03:53:49;1.10;99.90
14985;DHT22;7588;62.368;25.902;2023-01-01T03:59:17;1.00;99.90
14985;DHT22;7588;62.368;25.902;2023-01-01T04:01:51;1.00;99.90
14985;DHT22;7588;62.368;25.902;2023-01-01T04:04:21;1.00;99.90
14985;DHT22;7588;62.368;25.902;2023-01-01T04:06:47;1.00;99.90
14985;DHT22;7588;62.368;25.902;2023-01-01T04:09:20;1.00;99.90
14985;DHT22;7588;62.368;25.902;2023-01-01T04:11:47;0.90;99.90
14985;DHT22;7588;62.368;25.902;2023-01-01T04:14:35;0.90;99.90
14985;DHT22;7588;62.368;25.902;2023-01-01T04:17:02;0.80;99.90
14985;DHT22;7588;62.368;25.902;2023-01-01T04:19:29;0.80;99.90
14985;DHT22;7588;62.368;25.902;2023-01-01T04:21:55;0.80;99.90
14985;DHT22;7588;62.368;25.902;2023-01-01T04:24:21;0.80;99.90
14985;DHT22;7588;62.368;25.902;2023-01-01T04:26:48;0.80;99.90
14985;DHT22;7588;62.368;25.902;2023-01-01T04:29:14;0.80;99.90
14985;DHT22;7588;62.368;25.902;2023-01-01T04:31:40;0.80;99.90
14985;DHT22;7588;62.368;25.902;2023-01-01T04:34:06;0.80;99.90
14985;DHT22;7588;62.368;25.902;2023-01-01T04:36:32;0.80;99.90
14985;DHT22;7588;62.368;25.902;2023-01-01T04:38:58;0.80;99.90
14985;DHT22;7588;62.368;25.902;2023-01-01T04:41:24;0.80;99.90
14985;DHT22;7588;62.368;25.902;2023-01-01T04:43:49;0.80;99.90
14985;DHT22;7588;62.368;25.902;2023-01-01T04:46:16;0.80;99.90
14985;DHT22;7588;62.368;25.902;2023-01-01T04:48:42;0.60;99.90
14985;DHT22;7588;62.368;25.902;2023-01-01T04:51:10;0.60;99.90
14985;DHT22;7588;62.368;25.902;2023-01-01T04:53:36;0.60;99.90
14985;DHT22;7588;62.368;25.902;2023-01-01T04:56:07;0.60;99.90
14985;DHT22;7588;62.368;25.902;2023-01-01T04:58:33;0.50;99.90
14985;DHT22;7588;62.368;25.902;2023-01-01T05:00:59;0.50;99.90
14985;DHT22;7588;62.368;25.902;2023-01-01T05:03:26;0.40;99.90
14985;DHT22;7588;62.368;25.902;2023-01-01T05:06:09;0.40;99.90
14985;DHT22;7588;62.368;25.902;2023-01-01T05:08:37;0.30;99.90
14985;DHT22;7588;62.368;25.902;2023-01-01T05:13:30;0.40;99.90
14985;DHT22;7588;62.368;25.902;2023-01-01T05:15:56;0.40;99.90
14985;DHT22;7588;62.368;25.902;2023-01-01T05:18:26;0.40;99.90
14985;DHT22;7588;62.368;25.902;2023-01-01T05:20:52;0.30;99.90
14985;DHT22;7588;62.368;25.902;2023-01-01T05:23:17;0.30;99.90
14985;DHT22;7588;62.368;25.902;2023-01-01T05:25:43;0.30;99.90
14985;DHT22;7588;62.368;25.902;2023-01-01T05:28:09;0.30;99.90
14985;DHT22;7588;62.368;25.902;2023-01-01T05:30:38;0.30;99.90
14985;DHT22;7588;62.368;25.902;2023-01-01T05:33:04;0.30;99.90
14985;DHT22;7588;62.368;25.902;2023-01-01T05:35:30;0.20;99.90
14985;DHT22;7588;62.368;25.902;2023-01-01T05:37:56;0.20;99.90
14985;DHT22;7588;62.368;25.902;2023-01-01T05:40:21;0.10;99.90
14985;DHT22;7588;62.368;25.902;2023-01-01T05:42:50;0.20;99.90
14985;DHT22;7588;62.368;25.902;2023-01-01T05:45:16;0.10;99.90
14985;DHT22;7588;62.368;25.902;2023-01-01T05:47:42;0.10;99.90
14985;DHT22;7588;62.368;25.902;2023-01-01T05:50:08;0.10;99.90
14985;DHT22;7588;62.368;25.902;2023-01-01T05:52:33;0.10;99.90
14985;DHT22;7588;62.368;25.902;2023-01-01T05:54:59;0.10;99.90
14985;DHT22;7588;62.368;25.902;2023-01-01T05:57:27;0.10;99.90
14985;DHT22;7588;62.368;25.902;2023-01-01T05:59:53;0.10;99.90
14985;DHT22;7588;62.368;25.902;2023-01-01T06:02:19;0.20;99.90
14985;DHT22;7588;62.368;25.902;2023-01-01T06:04:44;0.20;99.90
14985;DHT22;7588;62.368;25.902;2023-01-01T06:07:10;0.10;99.90
14985;DHT22;7588;62.368;25.902;2023-01-01T06:09:36;0.10;99.90
14985;DHT22;7588;62.368;25.902;2023-01-01T06:12:01;0.10;99.90
14985;DHT22;7588;62.368;25.902;2023-01-01T06:14:27;0.10;99.90
14985;DHT22;7588;62.368;25.902;2023-01-01T06:16:53;0.10;99.90
14985;DHT22;7588;62.368;25.902;2023-01-01T06:19:19;0.20;99.90
14985;DHT22;7588;62.368;25.902;2023-01-01T06:21:44;0.10;99.90
14985;DHT22;7588;62.368;25.902;2023-01-01T06:24:10;0.00;99.90
14985;DHT22;7588;62.368;25.902;2023-01-01T06:26:36;0.00;99.90
14985;DHT22;7588;62.368;25.902;2023-01-01T06:29:02;0.00;99.90
14985;DHT22;7588;62.368;25.902;2023-01-01T06:31:29;-0.10;99.90
14985;DHT22;7588;62.368;25.902;2023-01-01T06:33:55;-0.10;99.90
14985;DHT22;7588;62.368;25.902;2023-01-01T06:36:22;-0.10;99.90
14985;DHT22;7588;62.368;25.902;2023-01-01T06:38:51;-0.10;99.90
14985;DHT22;7588;62.368;25.902;2023-01-01T06:41:18;-0.20;99.90
14985;DHT22;7588;62.368;25.902;2023-01-01T06:43:45;-0.20;99.90
14985;DHT22;7588;62.368;25.902;2023-01-01T06:46:18;-0.20;99.90
14985;DHT22;7588;62.368;25.902;2023-01-01T06:48:46;-0.20;99.90
14985;DHT22;7588;62.368;25.902;2023-01-01T06:51:17;-0.20;99.90
14985;DHT22;7588;62.368;25.902;2023-01-01T06:53:44;-0.20;99.90
14985;DHT22;7588;62.368;25.902;2023-01-01T06:56:11;-0.30;99.90
14985;DHT22;7588;62.368;25.902;2023-01-01T06:58:36;-0.30;99.90
14985;DHT22;7588;62.368;25.902;2023-01-01T07:01:14;-0.30;99.90
14985;DHT22;7588;62.368;25.902;2023-01-01T07:03:41;-0.40;99.90
14985;DHT22;7588;62.368;25.902;2023-01-01T07:06:08;-0.40;99.90
14985;DHT22;7588;62.368;25.902;2023-01-01T07:08:34;-0.40;99.90
14985;DHT22;7588;62.368;25.902;2023-01-01T07:11:00;-0.40;99.90
14985;DHT22;7588;62.368;25.902;2023-01-01T07:13:28;-0.50;99.90
14985;DHT22;7588;62.368;25.902;2023-01-01T07:15:54;-0.50;99.90
14985;DHT22;7588;62.368;25.902;2023-01-01T07:18:21;-0.40;99.90
14985;DHT22;7588;62.368;25.902;2023-01-01T07:20:50;-0.50;99.90
14985;DHT22;7588;62.368;25.902;2023-01-01T07:23:16;-0.50;99.90
14985;DHT22;7588;62.368;25.902;2023-01-01T07:25:44;-0.60;99.90
14985;DHT22;7588;62.368;25.902;2023-01-01T07:28:10;-0.50;99.90
14985;DHT22;7588;62.368;25.902;2023-01-01T07:30:37;-0.50;99.90
14985;DHT22;7588;62.368;25.902;2023-01-01T07:33:03;-0.60;99.90
14985;DHT22;7588;62.368;25.902;2023-01-01T07:35:28;-0.50;99.90
14985;DHT22;7588;62.368;25.902;2023-01-01T07:37:54;-0.60;99.90
14985;DHT22;7588;62.368;25.902;2023-01-01T07:40:20;-0.60;99.90
14985;DHT22;7588;62.368;25.902;2023-01-01T07:42:46;-0.60;99.90
14985;DHT22;7588;62.368;25.902;2023-01-01T07:45:12;-0.60;99.90
14985;DHT22;7588;62.368;25.902;2023-01-01T07:47:38;-0.60;99.90
14985;DHT22;7588;62.368;25.902;2023-01-01T07:50:04;-0.60;99.90
14985;DHT22;7588;62.368;25.902;2023-01-01T07:52:29;-0.50;99.90
14985;DHT22;7588;62.368;25.902;2023-01-01T07:54:55;-0.50;99.90
14985;DHT22;7588;62.368;25.902;2023-01-01T07:57:21;-0.50;99.90
14985;DHT22;7588;62.368;25.902;2023-01-01T07:59:47;-0.50;99.90
14985;DHT22;7588;62.368;25.902;2023-01-01T08:02:12;-0.60;99.90
14985;DHT22;7588;62.368;25.902;2023-01-01T08:04:38;-0.60;99.90
14985;DHT22;7588;62.368;25.902;2023-01-01T08:07:04;-0.50;99.90
14985;DHT22;7588;62.368;25.902;2023-01-01T08:09:30;-0.50;99.90
14985;DHT22;7588;62.368;25.902;2023-01-01T08:11:56;-0.60;99.90
14985;DHT22;7588;62.368;25.902;2023-01-01T08:14:23;-0.60;99.90
14985;DHT22;7588;62.368;25.902;2023-01-01T08:16:52;-0.70;99.90
14985;DHT22;7588;62.368;25.902;2023-01-01T08:19:18;-0.80;99.90
14985;DHT22;7588;62.368;25.902;2023-01-01T08:21:43;-0.80;99.90
14985;DHT22;7588;62.368;25.902;2023-01-01T08:24:09;-0.90;99.90
14985;DHT22;7588;62.368;25.902;2023-01-01T08:26:35;-0.90;99.90
14985;DHT22;7588;62.368;25.902;2023-01-01T08:29:05;-0.90;99.90
14985;DHT22;7588;62.368;25.902;2023-01-01T08:31:32;-0.90;99.90
14985;DHT22;7588;62.368;25.902;2023-01-01T08:33:57;-0.90;99.90
14985;DHT22;7588;62.368;25.902;2023-01-01T08:36:23;-0.90;99.90
14985;DHT22;7588;62.368;25.902;2023-01-01T08:38:49;-0.90;99.90
14985;DHT22;7588;62.368;25.902;2023-01-01T08:41:15;-0.90;99.90
14985;DHT22;7588;62.368;25.902;2023-01-01T08:43:41;-0.90;99.90
14985;DHT22;7588;62.368;25.902;2023-01-01T08:46:07;-0.80;99.90
14985;DHT22;7588;62.368;25.902;2023-01-01T08:48:32;-0.90;99.90
14985;DHT22;7588;62.368;25.902;2023-01-01T08:50:59;-1.00;99.90
14985;DHT22;7588;62.368;25.902;2023-01-01T08:53:29;-1.00;99.90
14985;DHT22;7588;62.368;25.902;2023-01-01T08:56:00;-1.00;99.90
14985;DHT22;7588;62.368;25.902;2023-01-01T08:58:26;-1.00;99.90
14985;DHT22;7588;62.368;25.902;2023-01-01T09:00:53;-1.10;99.90
14985;DHT22;7588;62.368;25.902;2023-01-01T09:03:19;-1.10;99.90
14985;DHT22;7588;62.368;25.902;2023-01-01T09:05:45;-1.10;99.90
14985;DHT22;7588;62.368;25.902;2023-01-01T09:08:14;-1.10;99.90
14985;DHT22;7588;62.368;25.902;2023-01-01T09:10:40;-1.00;99.90
14985;DHT22;7588;62.368;25.902;2023-01-01T09:13:12;-1.00;99.90
14985;DHT22;7588;62.368;25.902;2023-01-01T09:15:39;-1.00;99.90
14985;DHT22;7588;62.368;25.902;2023-01-01T09:18:07;-1.10;99.90
14985;DHT22;7588;62.368;25.902;2023-01-01T09:20:33;-1.00;99.90
14985;DHT22;7588;62.368;25.902;2023-01-01T09:22:59;-1.00;99.90
14985;DHT22;7588;62.368;25.902;2023-01-01T09:25:25;-0.90;99.90
14985;DHT22;7588;62.368;25.902;2023-01-01T09:28:02;-0.90;99.90
14985;DHT22;7588;62.368;25.902;2023-01-01T09:30:28;-1.00;99.90
14985;DHT22;7588;62.368;25.902;2023-01-01T09:32:54;-0.90;99.90
14985;DHT22;7588;62.368;25.902;2023-01-01T09:35:19;-0.90;99.90
14985;DHT22;7588;62.368;25.902;2023-01-01T09:37:45;-1.00;99.90
14985;DHT22;7588;62.368;25.902;2023-01-01T09:43:13;-1.00;99.90
14985;DHT22;7588;62.368;25.902;2023-01-01T09:46:00;-1.00;99.90
14985;DHT22;7588;62.368;25.902;2023-01-01T09:48:28;-1.00;99.90
14985;DHT22;7588;62.368;25.902;2023-01-01T09:50:54;-1.00;99.90
14985;DHT22;7588;62.368;25.902;2023-01-01T09:55:59;-1.10;99.90
14985;DHT22;7588;62.368;25.902;2023-01-01T09:58:36;-1.10;99.90
14985;DHT22;7588;62.368;25.902;2023-01-01T10:01:15;-1.10;99.90
14985;DHT22;7588;62.368;25.902;2023-01-01T10:03:55;-1.10;99.90
14985;DHT22;7588;62.368;25.902;2023-01-01T10:06:31;-1.10;99.90
14985;DHT22;7588;62.368;25.902;2023-01-01T10:12:05;-1.00;99.90
14985;DHT22;7588;62.368;25.902;2023-01-01T10:14:41;-1.00;99.90
14985;DHT22;7588;62.368;25.902;2023-01-01T10:17:18;-1.00;99.90
14985;DHT22;7588;62.368;25.902;2023-01-01T10:19:51;-0.90;99.90
14985;DHT22;7588;62.368;25.902;2023-01-01T10:22:32;-0.90;99.90
14985;DHT22;7588;62.368;25.902;2023-01-01T10:25:03;-0.90;99.90
14985;DHT22;7588;62.368;25.902;2023-01-01T10:27:59;-0.80;99.90
14985;DHT22;7588;62.368;25.902;2023-01-01T10:30:24;-0.80;99.90
14985;DHT22;7588;62.368;25.902;2023-01-01T10:32:52;-0.60;99.90
14985;DHT22;7588;62.368;25.902;2023-01-01T10:35:21;-0.50;99.90
14985;DHT22;7588;62.368;25.902;2023-01-01T10:37:47;-0.30;99.90
14985;DHT22;7588;62.368;25.902;2023-01-01T10:40:22;-0.10;99.90
14985;DHT22;7588;62.368;25.902;2023-01-01T10:42:53;0.00;99.90
14985;DHT22;7588;62.368;25.902;2023-01-01T10:45:38;0.00;99.90
14985;DHT22;7588;62.368;25.902;2023-01-01T10:53:28;0.00;99.90
14985;DHT22;7588;62.368;25.902;2023-01-01T10:56:00;-0.20;99.90
14985;DHT22;7588;62.368;25.902;2023-01-01T11:01:07;-0.40;99.90
14985;DHT22;7588;62.368;25.902;2023-01-01T11:03:33;-0.30;99.90
14985;DHT22;7588;62.368;25.902;2023-01-01T11:06:03;-0.20;99.90
14985;DHT22;7588;62.368;25.902;2023-01-01T11:08:31;-0.20;99.90
14985;DHT22;7588;62.368;25.902;2023-01-01T11:11:00;-0.10;99.90
14985;DHT22;7588;62.368;25.902;2023-01-01T11:13:27;-0.20;99.90
14985;DHT22;7588;62.368;25.902;2023-01-01T11:15:53;-0.20;99.90
14985;DHT22;7588;62.368;25.902;2023-01-01T11:18:28;-0.30;99.90
14985;DHT22;7588;62.368;25.902;2023-01-01T11:21:01;-0.40;99.90
14985;DHT22;7588;62.368;25.902;2023-01-01T11:28:57;-0.70;99.90
14985;DHT22;7588;62.368;25.902;2023-01-01T11:31:27;-0.80;99.90
14985;DHT22;7588;62.368;25.902;2023-01-01T11:33:54;-1.00;99.90
14985;DHT22;7588;62.368;25.902;2023-01-01T11:36:38;-1.00;99.90
14985;DHT22;7588;62.368;25.902;2023-01-01T11:39:21;-1.10;99.90
14985;DHT22;7588;62.368;25.902;2023-01-01T11:41:52;-1.20;99.90
14985;DHT22;7588;62.368;25.902;2023-01-01T11:44:35;-1.20;99.90
14985;DHT22;7588;62.368;25.902;2023-01-01T11:47:01;-1.20;99.90
14985;DHT22;7588;62.368;25.902;2023-01-01T11:49:29;-1.20;99.90
14985;DHT22;7588;62.368;25.902;2023-01-01T11:51:57;-1.30;99.90
14985;DHT22;7588;62.368;25.902;2023-01-01T11:54:32;-1.30;99.90
14985;DHT22;7588;62.368;25.902;2023-01-01T11:57:21;-1.30;99.90
14985;DHT22;7588;62.368;25.902;2023-01-01T12:00:08;-1.40;99.90
14985;DHT22;7588;62.368;25.902;2023-01-01T12:02:41;-1.50;99.90
14985;DHT22;7588;62.368;25.902;2023-01-01T12:07:40;-1.50;99.90
14985;DHT22;7588;62.368;25.902;2023-01-01T12:10:21;-1.50;99.90
14985;DHT22;7588;62.368;25.902;2023-01-01T12:13:14;-1.50;99.90
14985;DHT22;7588;62.368;25.902;2023-01-01T12:16:09;-1.50;99.90
14985;DHT22;7588;62.368;25.902;2023-01-01T12:18:47;-1.50;99.90
14985;DHT22;7588;62.368;25.902;2023-01-01T12:21:25;-1.50;99.90
14985;DHT22;7588;62.368;25.902;2023-01-01T12:23:53;-1.60;99.90
14985;DHT22;7588;62.368;25.902;2023-01-01T12:26:28;-1.60;99.90
14985;DHT22;7588;62.368;25.902;2023-01-01T12:46:35;-1.70;99.90
14985;DHT22;7588;62.368;25.902;2023-01-01T12:54:31;-1.80;99.90
14985;DHT22;7588;62.368;25.902;2023-01-01T12:57:19;-1.80;99.90
14985;DHT22;7588;62.368;25.902;2023-01-01T12:59:50;-1.90;99.90
14985;DHT22;7588;62.368;25.902;2023-01-01T13:02:22;-1.90;99.90
14985;DHT22;7588;62.368;25.902;2023-01-01T13:04:52;-2.00;99.90
14985;DHT22;7588;62.368;25.902;2023-01-01T13:07:35;-1.90;99.90
14985;DHT22;7588;62.368;25.902;2023-01-01T13:10:29;-2.00;99.90
14985;DHT22;7588;62.368;25.902;2023-01-01T13:12:55;-2.00;99.90
14985;DHT22;7588;62.368;25.902;2023-01-01T13:15:47;-2.00;99.90
14985;DHT22;7588;62.368;25.902;2023-01-01T13:20:52;-2.00;99.90
14985;DHT22;7588;62.368;25.902;2023-01-01T13:29:15;-2.10;99.90
14985;DHT22;7588;62.368;25.902;2023-01-01T13:34:37;-2.00;99.90
14985;DHT22;7588;62.368;25.902;2023-01-01T13:40:00;-2.10;99.90
14985;DHT22;7588;62.368;25.902;2023-01-01T13:42:40;-2.20;99.90
14985;DHT22;7588;62.368;25.902;2023-01-01T13:45:14;-2.20;99.90
14985;DHT22;7588;62.368;25.902;2023-01-01T13:50:37;-2.20;99.90
14985;DHT22;7588;62.368;25.902;2023-01-01T14:02:16;-2.20;99.90
14985;DHT22;7588;62.368;25.902;2023-01-01T14:10:20;-2.30;99.90
14985;DHT22;7588;62.368;25.902;2023-01-01T14:12:47;-2.30;99.90
14985;DHT22;7588;62.368;25.902;2023-01-01T14:15:26;-2.30;99.90
14985;DHT22;7588;62.368;25.902;2023-01-01T14:17:57;-2.30;99.90
14985;DHT22;7588;62.368;25.902;2023-01-01T14:20:40;-2.30;99.90
14985;DHT22;7588;62.368;25.902;2023-01-01T14:25:44;-2.30;99.90
14985;DHT22;7588;62.368;25.902;2023-01-01T14:28:24;-2.40;99.90
14985;DHT22;7588;62.368;25.902;2023-01-01T14:30:51;-2.40;99.90
14985;DHT22;7588;62.368;25.902;2023-01-01T14:33:24;-2.40;99.90
14985;DHT22;7588;62.368;25.902;2023-01-01T14:35:51;-2.40;99.90
14985;DHT22;7588;62.368;25.902;2023-01-01T14:38:44;-2.50;99.90
14985;DHT22;7588;62.368;25.902;2023-01-01T14:44:18;-2.40;99.90
14985;DHT22;7588;62.368;25.902;2023-01-01T14:46:44;-2.50;99.90
14985;DHT22;7588;62.368;25.902;2023-01-01T14:49:18;-2.50;99.90
14985;DHT22;7588;62.368;25.902;2023-01-01T14:51:48;-2.50;99.90
14985;DHT22;7588;62.368;25.902;2023-01-01T14:54:20;-2.50;99.90
14985;DHT22;7588;62.368;25.902;2023-01-01T14:56:48;-2.40;99.90
14985;DHT22;7588;62.368;25.902;2023-01-01T14:59:21;-2.40;99.90
14985;DHT22;7588;62.368;25.902;2023-01-01T15:02:21;-2.50;99.90
14985;DHT22;7588;62.368;25.902;2023-01-01T15:04:47;-2.50;99.90
14985;DHT22;7588;62.368;25.902;2023-01-01T15:07:30;-2.60;99.90
14985;DHT22;7588;62.368;25.902;2023-01-01T15:10:00;-2.50;99.90
14985;DHT22;7588;62.368;25.902;2023-01-01T15:12:27;-2.60;99.90
14985;DHT22;7588;62.368;25.902;2023-01-01T15:14:54;-2.50;99.90
14985;DHT22;7588;62.368;25.902;2023-01-01T15:17:23;-2.60;99.90
14985;DHT22;7588;62.368;25.902;2023-01-01T15:20:17;-2.60;99.90
14985;DHT22;7588;62.368;25.902;2023-01-01T15:22:44;-2.60;99.90
14985;DHT22;7588;62.368;25.902;2023-01-01T15:25:13;-2.60;99.90
14985;DHT22;7588;62.368;25.902;2023-01-01T15:27:40;-2.60;99.90
14985;DHT22;7588;62.368;25.902;2023-01-01T15:30:30;-2.70;99.90
14985;DHT22;7588;62.368;25.902;2023-01-01T15:33:08;-2.70;99.90
14985;DHT22;7588;62.368;25.902;2023-01-01T15:35:35;-2.80;99.90
14985;DHT22;7588;62.368;25.902;2023-01-01T15:38:13;-2.70;99.90
14985;DHT22;7588;62.368;25.902;2023-01-01T15:40:44;-2.70;99.90
14985;DHT22;7588;62.368;25.902;2023-01-01T15:43:27;-2.70;99.90
14985;DHT22;7588;62.368;25.902;2023-01-01T15:46:17;-2.80;99.90
14985;DHT22;7588;62.368;25.902;2023-01-01T15:48:49;-2.80;99.90
14985;DHT22;7588;62.368;25.902;2023-01-01T15:51:23;-2.70;99.90
14985;DHT22;7588;62.368;25.902;2023-01-01T15:56:19;-2.80;99.90
14985;DHT22;7588;62.368;25.902;2023-01-01T16:01:18;-3.00;99.90
14985;DHT22;7588;62.368;25.902;2023-01-01T16:03:44;-3.10;99.90
14985;DHT22;7588;62.368;25.902;2023-01-01T16:06:18;-3.00;99.90
14985;DHT22;7588;62.368;25.902;2023-01-01T16:08:44;-3.00;99.90
14985;DHT22;7588;62.368;25.902;2023-01-01T16:11:10;-2.90;99.90
14985;DHT22;7588;62.368;25.902;2023-01-01T16:13:36;-3.00;99.90
14985;DHT22;7588;62.368;25.902;2023-01-01T16:16:03;-3.00;99.90
14985;DHT22;7588;62.368;25.902;2023-01-01T16:18:32;-3.00;99.90
14985;DHT22;7588;62.368;25.902;2023-01-01T16:20:59;-3.00;99.90
14985;DHT22;7588;62.368;25.902;2023-01-01T16:23:28;-3.00;99.90
14985;DHT22;7588;62.368;25.902;2023-01-01T16:25:54;-3.00;99.90
14985;DHT22;7588;62.368;25.902;2023-01-01T16:28:20;-3.00;99.90
14985;DHT22;7588;62.368;25.902;2023-01-01T16:30:46;-3.00;99.90
14985;DHT22;7588;62.368;25.902;2023-01-01T16:33:16;-2.90;99.90
14985;DHT22;7588;62.368;25.902;2023-01-01T16:35:42;-3.00;99.90
14985;DHT22;7588;62.368;25.902;2023-01-01T16:38:08;-3.00;99.90
14985;DHT22;7588;62.368;25.902;2023-01-01T16:40:34;-3.10;99.90
14985;DHT22;7588;62.368;25.902;2023-01-01T16:43:00;-3.10;99.90
14985;DHT22;7588;62.368;25.902;2023-01-01T16:45:26;-3.10;99.90
14985;DHT22;7588;62.368;25.902;2023-01-01T16:47:52;-3.20;99.90
14985;DHT22;7588;62.368;25.902;2023-01-01T16:50:19;-3.20;99.90
14985;DHT22;7588;62.368;25.902;2023-01-01T16:52:45;-3.20;99.90
14985;DHT22;7588;62.368;25.902;2023-01-01T16:55:12;-3.20;99.90
14985;DHT22;7588;62.368;25.902;2023-01-01T16:57:38;-3.20;99.90
14985;DHT22;7588;62.368;25.902;2023-01-01T17:00:05;-3.30;99.90
14985;DHT22;7588;62.368;25.902;2023-01-01T17:02:31;-3.20;99.90
14985;DHT22;7588;62.368;25.902;2023-01-01T17:04:57;-3.30;99.90
14985;DHT22;7588;62.368;25.902;2023-01-01T17:07:22;-3.30;99.90
14985;DHT22;7588;62.368;25.902;2023-01-01T17:09:48;-3.20;99.90
14985;DHT22;7588;62.368;25.902;2023-01-01T17:12:14;-3.30;99.90
14985;DHT22;7588;62.368;25.902;2023-01-01T17:14:40;-3.30;99.90
14985;DHT22;7588;62.368;25.902;2023-01-01T17:17:05;-3.30;99.90
14985;DHT22;7588;62.368;25.902;2023-01-01T17:19:31;-3.30;99.90
14985;DHT22;7588;62.368;25.902;2023-01-01T17:21:57;-3.30;99.90
14985;DHT22;7588;62.368;25.902;2023-01-01T17:24:23;-3.30;99.90
14985;DHT22;7588;62.368;25.902;2023-01-01T17:26:50;-3.40;99.90
14985;DHT22;7588;62.368;25.902;2023-01-01T17:29:17;-3.50;99.90
14985;DHT22;7588;62.368;25.902;2023-01-01T17:31:43;-3.50;99.90
14985;DHT22;7588;62.368;25.902;2023-01-01T17:34:09;-3.50;99.90
14985;DHT22;7588;62.368;25.902;2023-01-01T17:36:38;-3.40;99.90
14985;DHT22;7588;62.368;25.902;2023-01-01T17:39:05;-3.50;99.90
14985;DHT22;7588;62.368;25.902;2023-01-01T17:41:31;-3.50;99.90
14985;DHT22;7588;62.368;25.902;2023-01-01T17:43:57;-3.40;99.90
14985;DHT22;7588;62.368;25.902;2023-01-01T17:46:26;-3.40;99.90
14985;DHT22;7588;62.368;25.902;2023-01-01T17:49:02;-3.50;99.90
14985;DHT22;7588;62.368;25.902;2023-01-01T17:51:28;-3.50;99.90
14985;DHT22;7588;62.368;25.902;2023-01-01T17:53:55;-3.50;99.90
14985;DHT22;7588;62.368;25.902;2023-01-01T17:56:22;-3.40;99.90